createdAt,value
2017-06-04T00:01:16.203Z,91.60
2017-06-04T00:03:43.667Z,91.50
2017-06-04T00:06:11.903Z,91.70
2017-06-04T00:08:39.368Z,91.70
2017-06-04T00:11:06.836Z,92.00
2017-06-04T00:16:27.771Z,92.30
2017-06-04T00:18:55.236Z,91.70
2017-06-04T00:21:23.470Z,92.20
2017-06-04T00:23:50.921Z,91.90
2017-06-04T00:26:18.404Z,91.50
2017-06-04T00:28:45.850Z,91.40
2017-06-04T00:31:13.324Z,90.90
2017-06-04T00:33:40.888Z,91.20
2017-06-04T00:36:08.347Z,91.70
2017-06-04T00:38:35.854Z,91.80
2017-06-04T00:41:03.312Z,92.10
2017-06-04T00:43:30.781Z,92.50
2017-06-04T00:46:11.136Z,92.30
2017-06-04T00:48:38.608Z,92.20
2017-06-04T00:51:06.088Z,92.40
2017-06-04T00:53:33.565Z,92.30
2017-06-04T00:56:01.809Z,92.50
2017-06-04T01:01:23.327Z,92.40
2017-06-04T01:03:50.824Z,92.40
2017-06-04T01:06:18.275Z,92.80
2017-06-04T01:08:45.752Z,92.20
2017-06-04T01:11:13.991Z,92.70
2017-06-04T01:13:41.468Z,92.70
2017-06-04T01:16:08.931Z,93.10
2017-06-04T01:18:36.403Z,93.10
2017-06-04T01:21:04.635Z,93.30
2017-06-04T01:26:25.611Z,93.40
2017-06-04T01:28:53.840Z,93.60
2017-06-04T01:31:21.324Z,93.50
2017-06-04T01:33:48.790Z,93.20
2017-06-04T01:36:17.024Z,93.00
2017-06-04T01:38:44.492Z,93.00
2017-06-04T01:41:11.987Z,92.90
2017-06-04T01:43:40.252Z,93.50
2017-06-04T01:46:07.733Z,93.50
2017-06-04T01:48:35.204Z,93.30
2017-06-04T01:51:02.655Z,93.30
2017-06-04T01:53:30.128Z,93.50
2017-06-04T01:55:57.592Z,92.90
2017-06-04T01:58:25.068Z,93.30
2017-06-04T02:00:52.528Z,93.30
2017-06-04T02:03:20.013Z,93.40
2017-06-04T02:05:48.252Z,93.90
2017-06-04T02:08:15.723Z,93.60
2017-06-04T02:10:43.196Z,94.00
2017-06-04T02:13:10.668Z,94.00
2017-06-04T02:15:38.915Z,93.00
2017-06-04T02:18:06.400Z,93.00
2017-06-04T02:20:34.663Z,93.30
2017-06-04T02:23:02.140Z,93.30
2017-06-04T02:25:30.491Z,93.00
2017-06-04T02:27:57.976Z,93.00
2017-06-04T02:30:26.224Z,93.50
2017-06-04T02:32:53.705Z,93.50
2017-06-04T02:35:21.970Z,93.20
2017-06-04T02:37:49.433Z,93.10
2017-06-04T02:40:17.671Z,93.00
2017-06-04T02:42:45.145Z,92.90
2017-06-04T02:45:12.603Z,93.20
2017-06-04T02:47:40.069Z,93.30
2017-06-04T02:50:07.539Z,93.70
2017-06-04T02:52:35.767Z,93.60
2017-06-04T02:55:03.249Z,93.20
2017-06-04T02:57:30.724Z,93.00
2017-06-04T02:59:58.972Z,93.10
2017-06-04T03:02:26.456Z,93.10
2017-06-04T03:04:53.920Z,94.10
2017-06-04T03:07:22.175Z,94.40
2017-06-04T03:09:49.646Z,94.10
2017-06-04T03:12:17.896Z,93.80
2017-06-04T03:14:45.360Z,93.60
2017-06-04T03:23:00.124Z,93.30
2017-06-04T03:25:27.590Z,93.70
2017-06-04T03:27:55.073Z,92.70
2017-06-04T03:30:22.533Z,92.70
2017-06-04T03:32:50.011Z,92.90
2017-06-04T03:35:18.530Z,93.10
2017-06-04T03:37:45.988Z,93.20
2017-06-04T03:40:13.456Z,92.60
2017-06-04T03:42:40.915Z,92.40
2017-06-04T03:45:08.387Z,92.20
2017-06-04T03:47:35.854Z,92.70
2017-06-04T03:50:03.319Z,92.20
2017-06-04T03:52:30.825Z,92.30
2017-06-04T03:54:58.347Z,92.50
2017-06-04T03:57:25.808Z,91.80
2017-06-04T03:59:53.274Z,92.00
2017-06-04T04:02:21.502Z,92.30
2017-06-04T04:04:48.979Z,92.30
2017-06-04T04:07:16.435Z,91.60
2017-06-04T04:09:43.897Z,92.00
2017-06-04T04:12:11.370Z,92.90
2017-06-04T04:14:38.822Z,92.00
2017-06-04T04:17:06.298Z,92.30
2017-06-04T04:19:34.519Z,91.90
2017-06-04T04:22:01.982Z,91.80
2017-06-04T04:24:29.431Z,91.70
2017-06-04T04:26:56.906Z,91.40
2017-06-04T04:29:24.381Z,91.50
2017-06-04T04:31:51.875Z,91.70
2017-06-04T04:34:19.403Z,91.60
2017-06-04T04:36:46.859Z,91.50
2017-06-04T04:39:14.334Z,92.20
2017-06-04T04:41:42.553Z,92.40
2017-06-04T04:44:10.082Z,92.40
2017-06-04T04:46:37.552Z,90.90
2017-06-04T04:49:05.024Z,91.50
2017-06-04T04:51:32.488Z,91.30
2017-06-04T04:53:59.957Z,90.10
2017-06-04T04:56:27.431Z,89.00
2017-06-04T04:58:54.919Z,88.40
2017-06-04T05:01:23.156Z,89.30
2017-06-04T05:03:50.647Z,89.30
2017-06-04T05:06:18.888Z,89.20
2017-06-04T05:08:46.356Z,89.60
2017-06-04T05:11:13.833Z,90.20
2017-06-04T05:13:42.048Z,90.40
2017-06-04T05:16:09.523Z,90.30
2017-06-04T05:18:36.996Z,91.30
2017-06-04T05:21:04.469Z,91.00
2017-06-04T05:23:31.934Z,89.60
2017-06-04T05:26:00.165Z,91.00
2017-06-04T05:28:33.452Z,90.70
2017-06-04T05:31:01.000Z,90.30
2017-06-04T05:33:28.484Z,90.70
2017-06-04T05:35:55.944Z,91.20
2017-06-04T05:38:23.405Z,90.10
2017-06-04T05:40:50.912Z,90.90
2017-06-04T05:43:18.404Z,90.70
2017-06-04T05:45:45.864Z,91.10
2017-06-04T05:48:13.329Z,91.40
2017-06-04T05:50:40.827Z,90.40
2017-06-04T05:53:09.063Z,90.40
2017-06-04T05:55:36.539Z,90.30
2017-06-04T05:58:04.011Z,90.70
2017-06-04T06:00:32.237Z,90.10
2017-06-04T06:02:59.731Z,90.00
2017-06-04T06:05:27.205Z,90.20
2017-06-04T06:07:55.436Z,87.30
2017-06-04T06:10:22.897Z,87.30
2017-06-04T06:12:50.421Z,89.80
2017-06-04T06:15:17.895Z,87.70
2017-06-04T06:17:45.358Z,87.90
2017-06-04T06:20:12.831Z,86.10
2017-06-04T06:22:40.296Z,86.70
2017-06-04T06:25:07.792Z,88.30
2017-06-04T06:27:36.019Z,88.30
2017-06-04T06:30:03.492Z,88.20
2017-06-04T06:32:30.947Z,86.70
2017-06-04T06:34:58.431Z,87.50
2017-06-04T06:37:26.658Z,88.30
2017-06-04T06:39:54.119Z,88.30
2017-06-04T06:42:21.595Z,89.00
2017-06-04T06:53:29.751Z,86.90
2017-06-04T06:55:57.226Z,87.40
2017-06-04T06:58:24.692Z,87.70
2017-06-04T07:00:52.153Z,88.40
2017-06-04T07:03:19.624Z,86.70
2017-06-04T07:05:47.860Z,86.70
2017-06-04T07:08:15.342Z,86.60
2017-06-04T07:10:42.817Z,88.30
2017-06-04T07:13:11.039Z,85.10
2017-06-04T07:15:38.525Z,85.00
2017-06-04T07:18:06.012Z,87.50
2017-06-04T07:20:44.471Z,82.70
2017-06-04T07:23:11.943Z,82.60
2017-06-04T07:25:39.407Z,82.20
2017-06-04T07:28:06.872Z,84.00
2017-06-04T07:30:34.332Z,84.80
2017-06-04T07:33:01.801Z,81.70
2017-06-04T07:35:29.268Z,82.20
2017-06-04T07:37:57.498Z,83.90
2017-06-04T07:40:24.964Z,84.00
2017-06-04T07:42:52.431Z,84.10
2017-06-04T07:45:20.045Z,78.90
2017-06-04T07:47:47.534Z,81.00
2017-06-04T07:50:15.011Z,82.20
2017-06-04T07:52:42.477Z,80.40
2017-06-04T07:55:09.956Z,81.30
2017-06-04T07:57:37.422Z,82.40
2017-06-04T08:00:04.889Z,82.80
2017-06-04T08:02:32.355Z,84.70
2017-06-04T08:04:59.832Z,82.50
2017-06-04T08:07:27.385Z,80.90
2017-06-04T08:09:54.843Z,79.60
2017-06-04T08:12:22.308Z,81.50
2017-06-04T08:14:49.760Z,80.50
2017-06-04T08:17:17.243Z,83.50
2017-06-04T08:19:44.695Z,81.50
2017-06-04T08:22:12.170Z,80.30
2017-06-04T08:24:40.400Z,82.30
2017-06-04T08:27:07.898Z,82.20
2017-06-04T08:29:36.130Z,84.50
2017-06-04T08:32:03.598Z,83.90
2017-06-04T08:34:31.055Z,78.80
2017-06-04T08:36:59.843Z,80.20
2017-06-04T08:39:37.201Z,80.70
2017-06-04T08:42:04.657Z,82.30
2017-06-04T08:47:25.452Z,82.10
2017-06-04T08:49:53.688Z,83.50
2017-06-04T08:52:21.149Z,83.50
2017-06-04T08:54:48.649Z,82.40
2017-06-04T08:57:16.877Z,80.30
2017-06-04T08:59:44.347Z,80.30
2017-06-04T09:02:11.809Z,83.50
2017-06-04T09:04:39.299Z,79.50
2017-06-04T09:07:07.518Z,78.10
2017-06-04T09:09:35.020Z,78.00
2017-06-04T09:12:03.264Z,78.50
2017-06-04T09:14:30.842Z,78.50
2017-06-04T09:16:58.299Z,79.10
2017-06-04T09:19:25.754Z,75.70
2017-06-04T09:21:53.323Z,76.70
2017-06-04T09:24:24.444Z,75.20
2017-06-04T09:26:51.968Z,75.60
2017-06-04T09:29:19.440Z,76.50
2017-06-04T09:31:46.917Z,78.00
2017-06-04T09:37:08.596Z,76.00
2017-06-04T09:39:36.835Z,76.80
2017-06-04T09:42:04.313Z,76.60
2017-06-04T09:44:31.794Z,75.30
2017-06-04T09:47:00.019Z,75.70
2017-06-04T09:52:21.696Z,72.20
2017-06-04T09:54:49.927Z,72.80
2017-06-04T09:57:17.388Z,72.80
2017-06-04T09:59:44.864Z,69.70
2017-06-04T10:02:12.323Z,68.50
2017-06-04T10:04:39.789Z,69.30
2017-06-04T10:07:07.244Z,68.50
2017-06-04T10:09:34.703Z,69.10
2017-06-04T10:14:56.425Z,69.10
2017-06-04T10:17:23.899Z,69.10
2017-06-04T10:19:51.359Z,67.30
2017-06-04T10:22:18.817Z,66.80
2017-06-04T10:24:54.036Z,65.00
2017-06-04T10:27:21.496Z,65.70
2017-06-04T10:29:48.967Z,67.20
2017-06-04T10:32:16.425Z,65.50
2017-06-04T10:34:51.356Z,64.70
2017-06-04T10:40:22.708Z,65.60
2017-06-04T10:42:50.163Z,66.50
2017-06-04T10:48:11.819Z,62.80
2017-06-04T10:50:39.396Z,62.70
2017-06-04T10:53:06.948Z,62.30
2017-06-04T10:55:34.412Z,62.90
2017-06-04T10:58:01.883Z,62.70
2017-06-04T11:00:43.624Z,63.10
2017-06-04T11:03:11.092Z,63.00
2017-06-04T11:05:38.559Z,61.80
2017-06-04T11:08:06.056Z,62.20
2017-06-04T11:10:34.300Z,61.50
2017-06-04T11:13:01.768Z,61.50
2017-06-04T11:15:29.239Z,61.30
2017-06-04T11:17:57.489Z,61.10
2017-06-04T11:20:24.959Z,61.00
2017-06-04T11:22:52.451Z,61.30
2017-06-04T11:25:19.933Z,62.90
2017-06-04T11:27:47.416Z,61.60
2017-06-04T11:30:14.880Z,61.50
2017-06-04T11:32:42.397Z,62.60
2017-06-04T11:35:10.154Z,61.50
2017-06-04T11:37:37.747Z,60.30
2017-06-04T11:40:05.223Z,61.50
2017-06-04T11:42:33.468Z,62.10
2017-06-04T11:45:00.932Z,62.00
2017-06-04T11:47:28.406Z,61.20
2017-06-04T11:49:55.889Z,58.50
2017-06-04T11:52:24.115Z,59.10
2017-06-04T11:54:51.617Z,59.00
2017-06-04T11:57:19.844Z,58.90
2017-06-04T11:59:47.310Z,58.50
2017-06-04T12:02:14.775Z,58.70
2017-06-04T12:04:42.249Z,59.20
2017-06-04T12:10:02.748Z,58.30
2017-06-04T12:12:30.336Z,57.30
2017-06-04T12:14:57.792Z,57.40
2017-06-04T12:17:25.268Z,56.30
2017-06-04T12:19:52.744Z,55.20
2017-06-04T12:22:20.208Z,56.20
2017-06-04T12:24:47.679Z,56.00
2017-06-04T12:27:15.176Z,55.70
2017-06-04T12:32:43.173Z,54.80
2017-06-04T12:35:12.101Z,54.60
2017-06-04T12:37:39.599Z,54.60
2017-06-04T12:40:07.076Z,53.30
2017-06-04T12:42:34.540Z,53.30
2017-06-04T12:45:02.781Z,52.80
2017-06-04T12:47:30.236Z,52.70
2017-06-04T12:49:57.707Z,52.70
2017-06-04T12:52:25.167Z,52.90
2017-06-04T12:54:52.635Z,53.00
2017-06-04T12:57:20.099Z,50.60
2017-06-04T12:59:48.361Z,49.70
2017-06-04T13:02:15.817Z,49.60
2017-06-04T13:04:43.326Z,50.70
2017-06-04T13:07:10.804Z,51.20
2017-06-04T13:09:38.345Z,51.10
2017-06-04T13:12:05.811Z,49.70
2017-06-04T13:14:33.267Z,49.00
2017-06-04T13:17:00.762Z,47.30
2017-06-04T13:19:28.217Z,48.80
2017-06-04T13:21:55.690Z,48.30
2017-06-04T13:24:23.155Z,47.90
2017-06-04T13:26:51.392Z,48.00
2017-06-04T13:29:18.864Z,48.00
2017-06-04T13:31:46.344Z,48.20
2017-06-04T13:34:14.568Z,48.90
2017-06-04T13:36:42.040Z,48.80
2017-06-04T13:39:09.508Z,48.00
2017-06-04T13:41:36.968Z,47.00
2017-06-04T13:44:04.427Z,45.20
2017-06-04T13:49:43.590Z,46.10
2017-06-04T13:52:19.487Z,46.10
2017-06-04T13:54:46.955Z,46.30
2017-06-04T13:57:14.416Z,45.60
2017-06-04T13:59:41.920Z,46.30
2017-06-04T14:02:09.379Z,47.00
2017-06-04T14:04:36.833Z,47.40
2017-06-04T14:07:04.308Z,48.10
2017-06-04T14:09:32.531Z,43.30
2017-06-04T14:12:00.024Z,43.20
2017-06-04T14:14:34.951Z,44.20
2017-06-04T14:17:02.412Z,44.60
2017-06-04T14:19:29.872Z,45.70
2017-06-04T14:21:57.440Z,46.00
2017-06-04T14:24:25.668Z,44.30
2017-06-04T14:26:53.141Z,43.80
2017-06-04T14:29:20.597Z,45.80
2017-06-04T14:31:48.103Z,44.80
2017-06-04T14:34:15.603Z,43.30
2017-06-04T14:36:43.092Z,42.70
2017-06-04T14:39:10.563Z,44.00
2017-06-04T14:41:38.795Z,44.50
2017-06-04T14:44:06.268Z,44.40
2017-06-04T14:46:33.728Z,43.90
2017-06-04T14:49:01.222Z,44.80
2017-06-04T14:51:29.450Z,44.50
2017-06-04T14:53:56.927Z,44.40
2017-06-04T14:56:24.389Z,44.60
2017-06-04T14:58:51.850Z,45.70
2017-06-04T15:01:19.337Z,45.10
2017-06-04T15:06:41.047Z,45.30
2017-06-04T15:09:08.495Z,45.30
2017-06-04T15:11:36.007Z,46.30
2017-06-04T15:14:03.469Z,45.90
2017-06-04T15:16:54.060Z,46.40
2017-06-04T15:19:21.512Z,46.20
2017-06-04T15:21:48.978Z,46.10
2017-06-04T15:24:16.442Z,46.10
2017-06-04T15:26:43.910Z,45.50
2017-06-04T15:32:04.953Z,45.60
2017-06-04T15:34:32.416Z,45.50
2017-06-04T15:36:59.902Z,46.70
2017-06-04T15:39:28.261Z,47.30
2017-06-04T15:41:55.724Z,47.20
2017-06-04T15:44:23.188Z,46.90
2017-06-04T15:46:51.419Z,46.60
2017-06-04T15:49:18.895Z,46.20
2017-06-04T15:51:46.351Z,46.70
2017-06-04T15:54:13.811Z,45.40
2017-06-04T15:56:41.323Z,46.20
2017-06-04T15:59:08.799Z,45.80
2017-06-04T16:01:36.261Z,46.60
2017-06-04T16:04:03.749Z,45.50
2017-06-04T16:06:31.249Z,45.40
2017-06-04T16:08:58.729Z,44.60
2017-06-04T16:11:26.183Z,44.60
2017-06-04T16:13:53.796Z,43.70
2017-06-04T16:16:21.275Z,42.60
2017-06-04T16:18:48.807Z,42.60
2017-06-04T16:21:16.279Z,42.20
2017-06-04T16:23:44.504Z,39.50
2017-06-04T16:26:11.964Z,39.40
2017-06-04T16:28:39.440Z,38.20
2017-06-04T16:31:06.924Z,36.40
2017-06-04T16:33:34.423Z,35.80
2017-06-04T16:36:01.910Z,34.80
2017-06-04T16:38:29.381Z,32.20
2017-06-04T16:40:56.863Z,29.70
2017-06-04T16:43:25.079Z,29.60
2017-06-04T16:45:52.539Z,29.60
2017-06-04T16:48:20.003Z,28.00
2017-06-04T16:50:47.473Z,27.70
2017-06-04T16:53:14.947Z,28.00
2017-06-04T16:55:42.407Z,27.90
2017-06-04T16:58:09.867Z,26.80
2017-06-04T17:00:37.327Z,27.50
2017-06-04T17:03:04.803Z,27.50
2017-06-04T17:05:33.054Z,29.00
2017-06-04T17:08:00.556Z,29.00
2017-06-04T17:10:28.024Z,29.20
2017-06-04T17:12:55.508Z,29.90
2017-06-04T17:15:22.987Z,30.30
2017-06-04T17:17:50.491Z,30.00
2017-06-04T17:20:17.944Z,30.60
2017-06-04T17:22:45.395Z,29.90
2017-06-04T17:25:12.864Z,29.60
2017-06-04T17:27:40.355Z,30.10
2017-06-04T17:30:07.816Z,30.00
2017-06-04T17:32:35.332Z,29.70
2017-06-04T17:35:02.805Z,28.90
2017-06-04T17:40:23.317Z,28.60
2017-06-04T17:42:50.780Z,28.20
2017-06-04T17:45:18.263Z,28.80
2017-06-04T17:47:45.853Z,29.70
2017-06-04T17:50:14.091Z,34.90
2017-06-04T17:52:41.557Z,34.80
2017-06-04T17:55:09.031Z,35.80
2017-06-04T17:57:36.511Z,37.40
2017-06-04T18:00:04.740Z,39.00
2017-06-04T18:02:32.243Z,38.90
2017-06-04T18:04:59.732Z,39.80
2017-06-04T18:07:27.196Z,40.20
2017-06-04T18:09:54.659Z,41.10
2017-06-04T18:12:22.148Z,42.00
2017-06-04T18:14:49.599Z,42.40
2017-06-04T18:20:10.197Z,42.90
2017-06-04T18:22:37.677Z,43.30
2017-06-04T18:25:05.151Z,43.30
2017-06-04T18:27:33.410Z,43.90
2017-06-04T18:30:00.889Z,43.70
2017-06-04T18:32:29.135Z,44.60
2017-06-04T18:34:56.621Z,44.60
2017-06-04T18:37:24.858Z,46.10
2017-06-04T18:39:52.334Z,46.00
2017-06-04T18:48:06.020Z,47.20
2017-06-04T18:50:34.264Z,48.20
2017-06-04T18:53:01.743Z,48.10
2017-06-04T18:55:29.222Z,48.70
2017-06-04T18:57:57.473Z,49.70
2017-06-04T19:00:24.939Z,49.60
2017-06-04T19:08:40.419Z,50.40
2017-06-04T19:11:07.877Z,50.30
2017-06-04T19:13:35.369Z,51.20
2017-06-04T19:16:02.832Z,50.60
2017-06-04T19:18:31.069Z,51.30
2017-06-04T19:20:58.571Z,51.30
2017-06-04T19:23:26.807Z,51.30
2017-06-04T19:29:01.552Z,51.70
2017-06-04T19:31:32.776Z,52.40
2017-06-04T19:36:53.356Z,52.50
2017-06-04T19:39:21.629Z,54.00
2017-06-04T19:41:49.876Z,54.50
2017-06-04T19:44:17.347Z,54.50
2017-06-04T19:46:44.840Z,54.50
2017-06-04T19:49:13.158Z,54.60
2017-06-04T19:51:40.647Z,54.30
2017-06-04T19:54:08.876Z,55.10
2017-06-04T19:56:36.367Z,55.00
2017-06-04T19:59:03.835Z,56.10
2017-06-04T20:04:25.468Z,56.40
2017-06-04T20:06:52.939Z,56.30
2017-06-04T20:09:21.245Z,56.60
2017-06-04T20:11:48.716Z,56.40
2017-06-04T20:14:16.198Z,56.60
2017-06-04T20:16:52.251Z,56.70
2017-06-04T20:19:19.720Z,56.90
2017-06-04T20:21:47.183Z,57.20
2017-06-04T20:24:21.327Z,57.10
2017-06-04T20:26:49.577Z,57.20
2017-06-04T20:29:17.042Z,57.10
2017-06-04T20:34:38.763Z,57.50
2017-06-04T20:37:06.235Z,57.50
2017-06-04T20:39:33.699Z,58.00
2017-06-04T20:42:01.292Z,58.30
2017-06-04T20:44:29.519Z,59.00
2017-06-04T20:46:56.986Z,59.50
2017-06-04T20:55:18.675Z,58.50
2017-06-04T20:57:46.900Z,58.10
2017-06-04T21:00:14.380Z,58.10
2017-06-04T21:02:41.869Z,58.10
2017-06-04T21:05:10.803Z,58.90
2017-06-04T21:07:39.094Z,59.10
2017-06-04T21:10:06.556Z,59.00
2017-06-04T21:12:34.049Z,58.80
2017-06-04T21:15:02.291Z,59.30
2017-06-04T21:17:29.744Z,59.30
2017-06-04T21:19:57.233Z,59.90
2017-06-04T21:22:25.459Z,59.90
2017-06-04T21:24:52.924Z,59.90
2017-06-04T21:27:20.384Z,60.10
2017-06-04T21:29:47.868Z,59.70
2017-06-04T21:32:15.330Z,59.50
2017-06-04T21:34:46.139Z,59.90
2017-06-04T21:37:13.624Z,60.80
2017-06-04T21:39:41.092Z,60.20
2017-06-04T21:42:09.321Z,60.60
2017-06-04T21:44:36.788Z,60.50
2017-06-04T21:47:04.252Z,60.70
2017-06-04T21:49:31.715Z,60.20
2017-06-04T21:51:59.194Z,59.90
2017-06-04T21:54:27.424Z,60.70
2017-06-04T21:56:54.888Z,60.70
2017-06-04T22:02:15.596Z,62.20
2017-06-04T22:04:43.068Z,62.30
2017-06-04T22:07:10.589Z,62.70
2017-06-04T22:09:38.043Z,62.30
2017-06-04T22:12:05.503Z,62.20
2017-06-04T22:14:32.984Z,61.40
2017-06-04T22:17:00.465Z,61.70
2017-06-04T22:19:27.924Z,61.70
2017-06-04T22:21:55.380Z,61.70
2017-06-04T22:24:22.840Z,61.60
2017-06-04T22:26:50.292Z,61.10
2017-06-04T22:29:17.756Z,62.30
2017-06-04T22:31:45.221Z,62.40
2017-06-04T22:34:12.696Z,62.70
2017-06-04T22:39:34.809Z,61.80
2017-06-04T22:42:02.270Z,61.70
2017-06-04T22:44:29.731Z,63.00
2017-06-04T22:46:57.220Z,63.50
2017-06-04T22:49:25.479Z,64.30
2017-06-04T22:51:52.939Z,64.10
2017-06-04T22:54:20.416Z,63.70
2017-06-04T22:56:48.635Z,63.70
2017-06-04T22:59:16.118Z,63.60
2017-06-04T23:01:43.584Z,63.00
2017-06-04T23:04:11.056Z,62.60
2017-06-04T23:06:39.320Z,63.10
2017-06-04T23:09:06.797Z,62.80
2017-06-04T23:11:35.020Z,62.90
2017-06-04T23:14:02.489Z,62.90
2017-06-04T23:22:17.388Z,62.30
2017-06-04T23:27:38.138Z,62.40
2017-06-04T23:30:05.639Z,62.70
2017-06-04T23:35:26.116Z,63.10
2017-06-04T23:37:54.351Z,63.30
2017-06-04T23:40:21.803Z,63.30
2017-06-04T23:42:49.292Z,63.20
2017-06-04T23:45:16.748Z,63.60
2017-06-04T23:47:44.236Z,63.40
2017-06-04T23:50:12.460Z,63.50
2017-06-04T23:52:39.948Z,63.30
2017-06-04T23:55:08.184Z,63.50
2017-06-04T23:57:35.651Z,64.00
